sensor_id;sensor_type;location;lat;lon;timestamp;P1;durP1;ratioP1;P2;durP2;ratioP2
42978;SDS011;28616;44.746;19.678;2023-04-27T00:01:33;9.10;;;3.38;;
42978;SDS011;28616;44.746;19.678;2023-04-27T00:03:59;9.90;;;4.13;;
42978;SDS011;28616;44.746;19.678;2023-04-27T00:06:25;8.57;;;4.53;;
42978;SDS011;28616;44.746;19.678;2023-04-27T00:08:51;7.22;;;3.83;;
42978;SDS011;28616;44.746;19.678;2023-04-27T00:11:17;10.20;;;3.17;;
42978;SDS011;28616;44.746;19.678;2023-04-27T00:13:43;8.73;;;3.70;;
42978;SDS011;28616;44.746;19.678;2023-04-27T00:16:08;5.40;;;3.13;;
42978;SDS011;28616;44.746;19.678;2023-04-27T00:18:34;8.23;;;4.10;;
42978;SDS011;28616;44.746;19.678;2023-04-27T00:21:00;9.32;;;3.78;;
42978;SDS011;28616;44.746;19.678;2023-04-27T00:23:26;8.48;;;4.18;;
42978;SDS011;28616;44.746;19.678;2023-04-27T00:25:52;14.77;;;3.05;;
42978;SDS011;28616;44.746;19.678;2023-04-27T00:28:18;7.75;;;3.97;;
42978;SDS011;28616;44.746;19.678;2023-04-27T00:30:43;6.68;;;3.47;;
42978;SDS011;28616;44.746;19.678;2023-04-27T00:33:09;7.22;;;3.10;;
42978;SDS011;28616;44.746;19.678;2023-04-27T00:35:35;11.02;;;3.50;;
42978;SDS011;28616;44.746;19.678;2023-04-27T00:38:01;10.02;;;3.50;;
42978;SDS011;28616;44.746;19.678;2023-04-27T00:40:27;10.13;;;3.83;;
42978;SDS011;28616;44.746;19.678;2023-04-27T00:42:53;9.70;;;3.45;;
42978;SDS011;28616;44.746;19.678;2023-04-27T00:45:18;7.60;;;3.30;;
42978;SDS011;28616;44.746;19.678;2023-04-27T00:47:44;6.93;;;3.30;;
42978;SDS011;28616;44.746;19.678;2023-04-27T00:50:10;10.90;;;2.97;;
42978;SDS011;28616;44.746;19.678;2023-04-27T00:52:36;8.82;;;3.50;;
42978;SDS011;28616;44.746;19.678;2023-04-27T00:55:03;10.25;;;4.22;;
42978;SDS011;28616;44.746;19.678;2023-04-27T00:57:29;8.45;;;3.95;;
42978;SDS011;28616;44.746;19.678;2023-04-27T00:59:56;6.95;;;3.00;;
42978;SDS011;28616;44.746;19.678;2023-04-27T01:02:24;8.43;;;3.38;;
42978;SDS011;28616;44.746;19.678;2023-04-27T01:04:50;7.78;;;3.40;;
42978;SDS011;28616;44.746;19.678;2023-04-27T01:07:17;7.65;;;2.80;;
42978;SDS011;28616;44.746;19.678;2023-04-27T01:09:43;11.63;;;3.70;;
42978;SDS011;28616;44.746;19.678;2023-04-27T01:12:09;10.23;;;3.85;;
42978;SDS011;28616;44.746;19.678;2023-04-27T01:14:35;6.82;;;2.90;;
42978;SDS011;28616;44.746;19.678;2023-04-27T01:17:01;14.15;;;5.30;;
42978;SDS011;28616;44.746;19.678;2023-04-27T01:19:26;8.43;;;3.67;;
42978;SDS011;28616;44.746;19.678;2023-04-27T01:21:52;10.30;;;4.15;;
42978;SDS011;28616;44.746;19.678;2023-04-27T01:24:18;16.63;;;3.85;;
42978;SDS011;28616;44.746;19.678;2023-04-27T01:26:44;10.55;;;3.58;;
42978;SDS011;28616;44.746;19.678;2023-04-27T01:29:10;8.00;;;3.50;;
42978;SDS011;28616;44.746;19.678;2023-04-27T01:31:36;8.80;;;4.05;;
42978;SDS011;28616;44.746;19.678;2023-04-27T01:34:02;6.15;;;3.20;;
42978;SDS011;28616;44.746;19.678;2023-04-27T01:36:28;9.95;;;3.60;;
42978;SDS011;28616;44.746;19.678;2023-04-27T01:38:55;9.38;;;3.47;;
42978;SDS011;28616;44.746;19.678;2023-04-27T01:41:22;7.15;;;3.10;;
42978;SDS011;28616;44.746;19.678;2023-04-27T01:43:47;17.95;;;4.20;;
42978;SDS011;28616;44.746;19.678;2023-04-27T01:46:13;18.80;;;5.30;;
42978;SDS011;28616;44.746;19.678;2023-04-27T01:48:40;17.65;;;6.00;;
42978;SDS011;28616;44.746;19.678;2023-04-27T01:51:06;22.88;;;7.75;;
42978;SDS011;28616;44.746;19.678;2023-04-27T01:53:32;19.10;;;5.72;;
42978;SDS011;28616;44.746;19.678;2023-04-27T01:55:58;11.23;;;3.55;;
42978;SDS011;28616;44.746;19.678;2023-04-27T01:58:24;14.30;;;4.95;;
42978;SDS011;28616;44.746;19.678;2023-04-27T02:00:50;20.50;;;7.53;;
42978;SDS011;28616;44.746;19.678;2023-04-27T02:03:16;14.13;;;6.05;;
42978;SDS011;28616;44.746;19.678;2023-04-27T02:05:42;19.63;;;7.43;;
42978;SDS011;28616;44.746;19.678;2023-04-27T02:08:08;29.75;;;10.95;;
42978;SDS011;28616;44.746;19.678;2023-04-27T02:10:34;15.48;;;5.97;;
42978;SDS011;28616;44.746;19.678;2023-04-27T02:13:00;12.02;;;6.72;;
42978;SDS011;28616;44.746;19.678;2023-04-27T02:15:26;13.57;;;5.85;;
42978;SDS011;28616;44.746;19.678;2023-04-27T02:17:52;13.95;;;5.28;;
42978;SDS011;28616;44.746;19.678;2023-04-27T02:20:18;15.65;;;5.75;;
42978;SDS011;28616;44.746;19.678;2023-04-27T02:22:44;10.90;;;5.88;;
42978;SDS011;28616;44.746;19.678;2023-04-27T02:25:10;10.15;;;5.35;;
42978;SDS011;28616;44.746;19.678;2023-04-27T02:27:37;15.93;;;7.97;;
42978;SDS011;28616;44.746;19.678;2023-04-27T02:30:04;9.65;;;5.40;;
42978;SDS011;28616;44.746;19.678;2023-04-27T02:32:30;13.70;;;6.13;;
42978;SDS011;28616;44.746;19.678;2023-04-27T02:34:57;16.20;;;6.25;;
42978;SDS011;28616;44.746;19.678;2023-04-27T02:37:22;11.70;;;5.72;;
42978;SDS011;28616;44.746;19.678;2023-04-27T02:39:48;9.57;;;5.60;;
42978;SDS011;28616;44.746;19.678;2023-04-27T02:42:14;17.65;;;5.18;;
42978;SDS011;28616;44.746;19.678;2023-04-27T02:44:40;16.17;;;6.13;;
42978;SDS011;28616;44.746;19.678;2023-04-27T02:47:06;15.60;;;6.03;;
42978;SDS011;28616;44.746;19.678;2023-04-27T02:49:32;20.05;;;6.28;;
42978;SDS011;28616;44.746;19.678;2023-04-27T02:51:58;16.33;;;7.20;;
42978;SDS011;28616;44.746;19.678;2023-04-27T02:54:24;24.63;;;7.47;;
42978;SDS011;28616;44.746;19.678;2023-04-27T02:56:49;33.10;;;8.18;;
42978;SDS011;28616;44.746;19.678;2023-04-27T02:59:15;28.50;;;8.00;;
42978;SDS011;28616;44.746;19.678;2023-04-27T03:01:41;30.17;;;9.55;;
42978;SDS011;28616;44.746;19.678;2023-04-27T03:04:07;25.42;;;8.43;;
42978;SDS011;28616;44.746;19.678;2023-04-27T03:06:33;21.80;;;7.47;;
42978;SDS011;28616;44.746;19.678;2023-04-27T03:08:58;11.68;;;5.63;;
42978;SDS011;28616;44.746;19.678;2023-04-27T03:11:24;12.95;;;5.70;;
42978;SDS011;28616;44.746;19.678;2023-04-27T03:13:50;13.48;;;5.40;;
42978;SDS011;28616;44.746;19.678;2023-04-27T03:16:16;17.65;;;6.68;;
42978;SDS011;28616;44.746;19.678;2023-04-27T03:18:42;23.23;;;7.57;;
42978;SDS011;28616;44.746;19.678;2023-04-27T03:21:08;12.20;;;6.13;;
42978;SDS011;28616;44.746;19.678;2023-04-27T03:23:36;11.07;;;5.43;;
42978;SDS011;28616;44.746;19.678;2023-04-27T03:26:05;13.50;;;7.05;;
42978;SDS011;28616;44.746;19.678;2023-04-27T03:28:35;9.73;;;4.53;;
42978;SDS011;28616;44.746;19.678;2023-04-27T03:31:05;12.90;;;4.57;;
42978;SDS011;28616;44.746;19.678;2023-04-27T03:33:32;7.50;;;4.22;;
42978;SDS011;28616;44.746;19.678;2023-04-27T03:35:58;7.90;;;5.05;;
42978;SDS011;28616;44.746;19.678;2023-04-27T03:38:25;12.88;;;4.57;;
42978;SDS011;28616;44.746;19.678;2023-04-27T03:40:51;9.32;;;4.28;;
42978;SDS011;28616;44.746;19.678;2023-04-27T03:43:18;10.35;;;4.57;;
42978;SDS011;28616;44.746;19.678;2023-04-27T03:45:45;9.43;;;4.93;;
42978;SDS011;28616;44.746;19.678;2023-04-27T03:48:11;15.38;;;5.30;;
42978;SDS011;28616;44.746;19.678;2023-04-27T03:50:38;11.50;;;5.55;;
42978;SDS011;28616;44.746;19.678;2023-04-27T03:53:04;9.90;;;4.70;;
42978;SDS011;28616;44.746;19.678;2023-04-27T03:55:30;12.05;;;4.85;;
42978;SDS011;28616;44.746;19.678;2023-04-27T03:57:56;16.35;;;5.22;;
42978;SDS011;28616;44.746;19.678;2023-04-27T04:00:23;9.02;;;4.47;;
42978;SDS011;28616;44.746;19.678;2023-04-27T04:02:49;10.10;;;4.38;;
42978;SDS011;28616;44.746;19.678;2023-04-27T04:05:16;9.95;;;4.47;;
42978;SDS011;28616;44.746;19.678;2023-04-27T04:07:42;12.05;;;5.05;;
42978;SDS011;28616;44.746;19.678;2023-04-27T04:10:09;18.80;;;5.03;;
42978;SDS011;28616;44.746;19.678;2023-04-27T04:12:35;14.57;;;5.95;;
42978;SDS011;28616;44.746;19.678;2023-04-27T04:15:01;14.38;;;4.45;;
42978;SDS011;28616;44.746;19.678;2023-04-27T04:17:28;12.57;;;5.43;;
42978;SDS011;28616;44.746;19.678;2023-04-27T04:19:53;15.57;;;6.20;;
42978;SDS011;28616;44.746;19.678;2023-04-27T04:22:19;17.13;;;5.30;;
42978;SDS011;28616;44.746;19.678;2023-04-27T04:24:45;26.02;;;9.18;;
42978;SDS011;28616;44.746;19.678;2023-04-27T04:27:11;22.75;;;8.60;;
42978;SDS011;28616;44.746;19.678;2023-04-27T04:29:37;19.00;;;7.75;;
42978;SDS011;28616;44.746;19.678;2023-04-27T04:32:03;17.70;;;6.78;;
42978;SDS011;28616;44.746;19.678;2023-04-27T04:34:29;20.38;;;5.38;;
42978;SDS011;28616;44.746;19.678;2023-04-27T04:36:56;12.70;;;5.90;;
42978;SDS011;28616;44.746;19.678;2023-04-27T04:39:21;14.40;;;6.47;;
42978;SDS011;28616;44.746;19.678;2023-04-27T04:41:48;14.52;;;6.78;;
42978;SDS011;28616;44.746;19.678;2023-04-27T04:44:16;17.55;;;5.70;;
42978;SDS011;28616;44.746;19.678;2023-04-27T04:46:44;33.40;;;8.85;;
42978;SDS011;28616;44.746;19.678;2023-04-27T04:49:11;23.50;;;8.18;;
42978;SDS011;28616;44.746;19.678;2023-04-27T04:51:40;12.48;;;6.45;;
42978;SDS011;28616;44.746;19.678;2023-04-27T04:54:09;13.18;;;4.75;;
42978;SDS011;28616;44.746;19.678;2023-04-27T04:56:35;14.23;;;4.78;;
42978;SDS011;28616;44.746;19.678;2023-04-27T04:59:01;10.80;;;4.00;;
42978;SDS011;28616;44.746;19.678;2023-04-27T05:01:28;11.30;;;4.07;;
42978;SDS011;28616;44.746;19.678;2023-04-27T05:03:54;10.80;;;4.47;;
42978;SDS011;28616;44.746;19.678;2023-04-27T05:06:19;12.63;;;5.28;;
42978;SDS011;28616;44.746;19.678;2023-04-27T05:08:45;10.20;;;3.55;;
42978;SDS011;28616;44.746;19.678;2023-04-27T05:11:11;8.15;;;4.18;;
42978;SDS011;28616;44.746;19.678;2023-04-27T05:13:37;9.30;;;4.70;;
42978;SDS011;28616;44.746;19.678;2023-04-27T05:16:04;12.65;;;3.47;;
42978;SDS011;28616;44.746;19.678;2023-04-27T05:18:30;10.43;;;5.35;;
42978;SDS011;28616;44.746;19.678;2023-04-27T05:20:56;8.02;;;3.72;;
42978;SDS011;28616;44.746;19.678;2023-04-27T05:23:22;5.90;;;4.25;;
42978;SDS011;28616;44.746;19.678;2023-04-27T05:25:48;7.57;;;4.53;;
42978;SDS011;28616;44.746;19.678;2023-04-27T05:28:13;9.30;;;3.45;;
42978;SDS011;28616;44.746;19.678;2023-04-27T05:30:40;5.55;;;2.95;;
42978;SDS011;28616;44.746;19.678;2023-04-27T05:33:06;14.65;;;5.85;;
42978;SDS011;28616;44.746;19.678;2023-04-27T05:35:32;8.75;;;4.57;;
42978;SDS011;28616;44.746;19.678;2023-04-27T05:37:58;7.57;;;4.55;;
42978;SDS011;28616;44.746;19.678;2023-04-27T05:40:24;7.63;;;5.03;;
42978;SDS011;28616;44.746;19.678;2023-04-27T05:42:50;6.03;;;2.50;;
42978;SDS011;28616;44.746;19.678;2023-04-27T05:45:16;7.90;;;3.42;;
42978;SDS011;28616;44.746;19.678;2023-04-27T05:47:42;7.75;;;3.22;;
42978;SDS011;28616;44.746;19.678;2023-04-27T05:50:08;7.53;;;4.50;;
42978;SDS011;28616;44.746;19.678;2023-04-27T05:52:34;7.88;;;2.70;;
42978;SDS011;28616;44.746;19.678;2023-04-27T05:55:00;15.27;;;7.50;;
42978;SDS011;28616;44.746;19.678;2023-04-27T05:57:26;5.88;;;3.45;;
42978;SDS011;28616;44.746;19.678;2023-04-27T05:59:52;4.75;;;2.65;;
42978;SDS011;28616;44.746;19.678;2023-04-27T06:02:18;5.22;;;3.15;;
42978;SDS011;28616;44.746;19.678;2023-04-27T06:04:44;12.70;;;5.95;;
42978;SDS011;28616;44.746;19.678;2023-04-27T06:07:11;8.63;;;4.75;;
42978;SDS011;28616;44.746;19.678;2023-04-27T06:09:38;5.28;;;2.83;;
42978;SDS011;28616;44.746;19.678;2023-04-27T06:12:05;9.50;;;3.97;;
42978;SDS011;28616;44.746;19.678;2023-04-27T06:14:32;5.47;;;3.40;;
42978;SDS011;28616;44.746;19.678;2023-04-27T06:17:00;6.25;;;3.45;;
42978;SDS011;28616;44.746;19.678;2023-04-27T06:19:26;8.27;;;3.97;;
42978;SDS011;28616;44.746;19.678;2023-04-27T06:21:52;6.20;;;3.75;;
42978;SDS011;28616;44.746;19.678;2023-04-27T06:24:19;8.25;;;4.40;;
42978;SDS011;28616;44.746;19.678;2023-04-27T06:26:45;8.50;;;3.28;;
42978;SDS011;28616;44.746;19.678;2023-04-27T06:29:11;9.73;;;4.85;;
42978;SDS011;28616;44.746;19.678;2023-04-27T06:31:36;7.15;;;4.32;;
42978;SDS011;28616;44.746;19.678;2023-04-27T06:34:02;8.43;;;3.90;;
42978;SDS011;28616;44.746;19.678;2023-04-27T06:36:28;10.10;;;5.93;;
42978;SDS011;28616;44.746;19.678;2023-04-27T06:38:55;17.08;;;14.43;;
42978;SDS011;28616;44.746;19.678;2023-04-27T06:43:19;6.82;;;3.03;;
42978;SDS011;28616;44.746;19.678;2023-04-27T06:45:45;7.18;;;3.03;;
42978;SDS011;28616;44.746;19.678;2023-04-27T06:48:11;8.00;;;3.08;;
42978;SDS011;28616;44.746;19.678;2023-04-27T06:50:37;8.52;;;3.17;;
42978;SDS011;28616;44.746;19.678;2023-04-27T06:53:02;6.22;;;2.70;;
42978;SDS011;28616;44.746;19.678;2023-04-27T06:55:28;6.05;;;3.10;;
42978;SDS011;28616;44.746;19.678;2023-04-27T06:57:54;6.75;;;2.55;;
42978;SDS011;28616;44.746;19.678;2023-04-27T07:00:20;4.45;;;2.30;;
42978;SDS011;28616;44.746;19.678;2023-04-27T07:02:46;5.32;;;2.45;;
42978;SDS011;28616;44.746;19.678;2023-04-27T07:05:11;8.05;;;3.03;;
42978;SDS011;28616;44.746;19.678;2023-04-27T07:07:37;5.40;;;1.95;;
42978;SDS011;28616;44.746;19.678;2023-04-27T07:10:03;10.35;;;2.78;;
42978;SDS011;28616;44.746;19.678;2023-04-27T07:12:29;7.05;;;2.42;;
42978;SDS011;28616;44.746;19.678;2023-04-27T07:14:55;2.75;;;1.92;;
42978;SDS011;28616;44.746;19.678;2023-04-27T07:17:21;3.60;;;2.00;;
42978;SDS011;28616;44.746;19.678;2023-04-27T07:19:47;4.25;;;2.00;;
42978;SDS011;28616;44.746;19.678;2023-04-27T07:22:12;4.88;;;2.20;;
42978;SDS011;28616;44.746;19.678;2023-04-27T07:24:40;5.75;;;2.35;;
42978;SDS011;28616;44.746;19.678;2023-04-27T07:27:05;3.78;;;1.55;;
42978;SDS011;28616;44.746;19.678;2023-04-27T07:29:32;6.38;;;2.67;;
42978;SDS011;28616;44.746;19.678;2023-04-27T07:31:58;3.10;;;1.55;;
42978;SDS011;28616;44.746;19.678;2023-04-27T07:34:23;3.17;;;1.67;;
42978;SDS011;28616;44.746;19.678;2023-04-27T07:36:50;2.33;;;1.25;;
42978;SDS011;28616;44.746;19.678;2023-04-27T07:39:18;4.68;;;2.00;;
42978;SDS011;28616;44.746;19.678;2023-04-27T07:41:44;5.93;;;1.33;;
42978;SDS011;28616;44.746;19.678;2023-04-27T07:44:10;4.10;;;1.58;;
42978;SDS011;28616;44.746;19.678;2023-04-27T07:46:36;4.13;;;1.50;;
42978;SDS011;28616;44.746;19.678;2023-04-27T07:49:02;4.82;;;2.03;;
42978;SDS011;28616;44.746;19.678;2023-04-27T07:51:28;6.88;;;2.70;;
42978;SDS011;28616;44.746;19.678;2023-04-27T07:53:54;3.65;;;2.28;;
42978;SDS011;28616;44.746;19.678;2023-04-27T07:56:20;4.93;;;2.88;;
42978;SDS011;28616;44.746;19.678;2023-04-27T07:58:46;4.40;;;2.05;;
42978;SDS011;28616;44.746;19.678;2023-04-27T08:01:11;3.45;;;2.28;;
42978;SDS011;28616;44.746;19.678;2023-04-27T08:03:37;4.88;;;2.22;;
42978;SDS011;28616;44.746;19.678;2023-04-27T08:06:03;7.75;;;2.60;;
42978;SDS011;28616;44.746;19.678;2023-04-27T08:08:29;11.32;;;2.50;;
42978;SDS011;28616;44.746;19.678;2023-04-27T08:10:55;3.92;;;2.17;;
42978;SDS011;28616;44.746;19.678;2023-04-27T08:13:20;6.20;;;2.53;;
42978;SDS011;28616;44.746;19.678;2023-04-27T08:15:46;3.53;;;2.25;;
42978;SDS011;28616;44.746;19.678;2023-04-27T08:18:12;2.67;;;1.98;;
42978;SDS011;28616;44.746;19.678;2023-04-27T08:20:37;3.88;;;2.15;;
42978;SDS011;28616;44.746;19.678;2023-04-27T08:23:03;3.13;;;1.90;;
42978;SDS011;28616;44.746;19.678;2023-04-27T08:25:29;5.55;;;2.45;;
42978;SDS011;28616;44.746;19.678;2023-04-27T08:27:55;4.80;;;2.50;;
42978;SDS011;28616;44.746;19.678;2023-04-27T08:30:20;6.75;;;2.05;;
42978;SDS011;28616;44.746;19.678;2023-04-27T08:32:46;6.32;;;2.10;;
42978;SDS011;28616;44.746;19.678;2023-04-27T08:35:12;6.53;;;2.95;;
42978;SDS011;28616;44.746;19.678;2023-04-27T08:37:38;5.80;;;3.10;;
42978;SDS011;28616;44.746;19.678;2023-04-27T08:40:06;11.77;;;5.25;;
42978;SDS011;28616;44.746;19.678;2023-04-27T08:42:33;5.28;;;3.83;;
42978;SDS011;28616;44.746;19.678;2023-04-27T08:44:59;5.03;;;2.30;;
42978;SDS011;28616;44.746;19.678;2023-04-27T08:47:25;3.80;;;2.80;;
42978;SDS011;28616;44.746;19.678;2023-04-27T08:49:51;4.38;;;2.50;;
42978;SDS011;28616;44.746;19.678;2023-04-27T08:52:17;6.07;;;2.50;;
42978;SDS011;28616;44.746;19.678;2023-04-27T08:54:43;4.32;;;2.50;;
42978;SDS011;28616;44.746;19.678;2023-04-27T08:57:12;4.53;;;3.17;;
42978;SDS011;28616;44.746;19.678;2023-04-27T08:59:39;6.25;;;3.05;;
42978;SDS011;28616;44.746;19.678;2023-04-27T09:02:05;3.38;;;2.88;;
42978;SDS011;28616;44.746;19.678;2023-04-27T09:04:38;8.60;;;3.72;;
42978;SDS011;28616;44.746;19.678;2023-04-27T09:07:15;5.22;;;3.05;;
42978;SDS011;28616;44.746;19.678;2023-04-27T09:09:42;2.70;;;2.10;;
42978;SDS011;28616;44.746;19.678;2023-04-27T09:12:18;3.60;;;2.65;;
42978;SDS011;28616;44.746;19.678;2023-04-27T09:14:55;6.53;;;2.42;;
42978;SDS011;28616;44.746;19.678;2023-04-27T09:17:25;4.20;;;2.90;;
42978;SDS011;28616;44.746;19.678;2023-04-27T09:20:02;4.05;;;2.42;;
42978;SDS011;28616;44.746;19.678;2023-04-27T09:22:47;4.10;;;2.58;;
42978;SDS011;28616;44.746;19.678;2023-04-27T09:27:55;3.30;;;2.55;;
42978;SDS011;28616;44.746;19.678;2023-04-27T09:30:23;3.25;;;2.30;;
42978;SDS011;28616;44.746;19.678;2023-04-27T09:37:49;5.53;;;3.33;;
42978;SDS011;28616;44.746;19.678;2023-04-27T09:40:22;3.83;;;2.75;;
42978;SDS011;28616;44.746;19.678;2023-04-27T09:42:56;4.82;;;2.85;;
42978;SDS011;28616;44.746;19.678;2023-04-27T09:45:23;4.20;;;2.63;;
42978;SDS011;28616;44.746;19.678;2023-04-27T09:47:49;5.57;;;3.05;;
42978;SDS011;28616;44.746;19.678;2023-04-27T09:50:15;8.23;;;2.70;;
42978;SDS011;28616;44.746;19.678;2023-04-27T09:52:41;3.80;;;2.35;;
42978;SDS011;28616;44.746;19.678;2023-04-27T09:55:08;4.38;;;2.40;;
42978;SDS011;28616;44.746;19.678;2023-04-27T09:57:39;6.55;;;2.80;;
42978;SDS011;28616;44.746;19.678;2023-04-27T10:03:32;2.70;;;2.40;;
42978;SDS011;28616;44.746;19.678;2023-04-27T10:09:14;3.88;;;2.63;;
42978;SDS011;28616;44.746;19.678;2023-04-27T10:11:47;3.78;;;2.85;;
42978;SDS011;28616;44.746;19.678;2023-04-27T10:14:17;2.95;;;2.75;;
42978;SDS011;28616;44.746;19.678;2023-04-27T10:16:50;3.33;;;2.88;;
42978;SDS011;28616;44.746;19.678;2023-04-27T10:19:23;3.97;;;3.10;;
42978;SDS011;28616;44.746;19.678;2023-04-27T10:21:53;4.07;;;2.60;;
42978;SDS011;28616;44.746;19.678;2023-04-27T10:27:19;3.35;;;3.05;;
42978;SDS011;28616;44.746;19.678;2023-04-27T10:29:49;4.00;;;2.90;;
42978;SDS011;28616;44.746;19.678;2023-04-27T10:32:24;4.00;;;3.03;;
42978;SDS011;28616;44.746;19.678;2023-04-27T10:34:51;3.00;;;2.70;;
42978;SDS011;28616;44.746;19.678;2023-04-27T10:37:37;2.90;;;2.70;;
42978;SDS011;28616;44.746;19.678;2023-04-27T10:40:06;2.97;;;2.78;;
42978;SDS011;28616;44.746;19.678;2023-04-27T10:42:44;3.47;;;2.78;;
42978;SDS011;28616;44.746;19.678;2023-04-27T10:45:10;3.53;;;2.83;;
42978;SDS011;28616;44.746;19.678;2023-04-27T10:47:38;3.00;;;2.65;;
42978;SDS011;28616;44.746;19.678;2023-04-27T10:50:08;3.42;;;3.05;;
42978;SDS011;28616;44.746;19.678;2023-04-27T10:52:43;3.45;;;3.15;;
42978;SDS011;28616;44.746;19.678;2023-04-27T10:55:16;3.42;;;3.03;;
42978;SDS011;28616;44.746;19.678;2023-04-27T10:57:49;5.63;;;3.00;;
42978;SDS011;28616;44.746;19.678;2023-04-27T11:02:53;3.45;;;3.10;;
42978;SDS011;28616;44.746;19.678;2023-04-27T11:05:20;3.40;;;2.90;;
42978;SDS011;28616;44.746;19.678;2023-04-27T11:07:49;6.70;;;4.07;;
42978;SDS011;28616;44.746;19.678;2023-04-27T11:10:18;6.53;;;4.43;;
42978;SDS011;28616;44.746;19.678;2023-04-27T11:12:45;4.78;;;4.18;;
42978;SDS011;28616;44.746;19.678;2023-04-27T11:15:11;5.47;;;4.57;;
42978;SDS011;28616;44.746;19.678;2023-04-27T11:17:38;4.65;;;4.15;;
42978;SDS011;28616;44.746;19.678;2023-04-27T11:20:05;4.88;;;4.47;;
42978;SDS011;28616;44.746;19.678;2023-04-27T11:22:32;8.63;;;4.78;;
42978;SDS011;28616;44.746;19.678;2023-04-27T11:24:59;6.45;;;5.93;;
42978;SDS011;28616;44.746;19.678;2023-04-27T11:27:34;7.90;;;4.72;;
42978;SDS011;28616;44.746;19.678;2023-04-27T11:30:04;9.55;;;6.53;;
42978;SDS011;28616;44.746;19.678;2023-04-27T11:32:31;8.40;;;5.22;;
42978;SDS011;28616;44.746;19.678;2023-04-27T11:34:57;8.95;;;5.55;;
42978;SDS011;28616;44.746;19.678;2023-04-27T11:37:24;10.77;;;6.25;;
42978;SDS011;28616;44.746;19.678;2023-04-27T11:39:52;5.10;;;4.60;;
42978;SDS011;28616;44.746;19.678;2023-04-27T11:47:25;7.82;;;5.28;;
42978;SDS011;28616;44.746;19.678;2023-04-27T11:49:56;6.05;;;4.80;;
42978;SDS011;28616;44.746;19.678;2023-04-27T11:52:32;4.63;;;4.22;;
42978;SDS011;28616;44.746;19.678;2023-04-27T11:55:00;7.97;;;5.22;;
42978;SDS011;28616;44.746;19.678;2023-04-27T11:57:31;8.73;;;5.73;;
42978;SDS011;28616;44.746;19.678;2023-04-27T12:00:00;5.22;;;4.45;;
42978;SDS011;28616;44.746;19.678;2023-04-27T12:02:34;7.28;;;5.38;;
42978;SDS011;28616;44.746;19.678;2023-04-27T12:05:04;6.28;;;4.53;;
42978;SDS011;28616;44.746;19.678;2023-04-27T12:07:31;7.53;;;4.97;;
42978;SDS011;28616;44.746;19.678;2023-04-27T12:09:57;5.70;;;4.88;;
42978;SDS011;28616;44.746;19.678;2023-04-27T12:12:23;5.10;;;4.68;;
42978;SDS011;28616;44.746;19.678;2023-04-27T12:14:49;6.00;;;4.57;;
42978;SDS011;28616;44.746;19.678;2023-04-27T12:17:15;5.15;;;4.43;;
42978;SDS011;28616;44.746;19.678;2023-04-27T12:19:42;5.70;;;5.30;;
42978;SDS011;28616;44.746;19.678;2023-04-27T12:22:08;5.85;;;5.03;;
42978;SDS011;28616;44.746;19.678;2023-04-27T12:24:34;7.28;;;4.80;;
42978;SDS011;28616;44.746;19.678;2023-04-27T12:27:01;5.70;;;5.20;;
42978;SDS011;28616;44.746;19.678;2023-04-27T12:29:27;4.10;;;3.70;;
42978;SDS011;28616;44.746;19.678;2023-04-27T12:31:53;6.38;;;5.70;;
42978;SDS011;28616;44.746;19.678;2023-04-27T12:34:19;5.93;;;5.13;;
42978;SDS011;28616;44.746;19.678;2023-04-27T12:36:45;9.18;;;7.28;;
42978;SDS011;28616;44.746;19.678;2023-04-27T12:39:18;6.93;;;5.63;;
42978;SDS011;28616;44.746;19.678;2023-04-27T12:41:49;11.40;;;7.03;;
42978;SDS011;28616;44.746;19.678;2023-04-27T12:44:16;9.40;;;6.72;;
42978;SDS011;28616;44.746;19.678;2023-04-27T12:46:43;17.63;;;6.10;;
42978;SDS011;28616;44.746;19.678;2023-04-27T12:49:10;5.45;;;4.47;;
42978;SDS011;28616;44.746;19.678;2023-04-27T12:51:36;5.20;;;4.70;;
42978;SDS011;28616;44.746;19.678;2023-04-27T12:54:02;8.65;;;4.72;;
42978;SDS011;28616;44.746;19.678;2023-04-27T12:56:29;7.60;;;5.40;;
42978;SDS011;28616;44.746;19.678;2023-04-27T12:58:55;5.57;;;4.68;;
42978;SDS011;28616;44.746;19.678;2023-04-27T13:01:21;5.75;;;5.13;;
42978;SDS011;28616;44.746;19.678;2023-04-27T13:03:52;11.65;;;6.68;;
42978;SDS011;28616;44.746;19.678;2023-04-27T13:06:27;9.07;;;6.05;;
42978;SDS011;28616;44.746;19.678;2023-04-27T13:08:55;10.07;;;6.30;;
42978;SDS011;28616;44.746;19.678;2023-04-27T13:11:22;7.00;;;6.32;;
42978;SDS011;28616;44.746;19.678;2023-04-27T13:13:48;6.95;;;5.53;;
42978;SDS011;28616;44.746;19.678;2023-04-27T13:16:14;8.23;;;5.38;;
42978;SDS011;28616;44.746;19.678;2023-04-27T13:18:43;11.00;;;5.30;;
42978;SDS011;28616;44.746;19.678;2023-04-27T13:21:13;8.10;;;6.82;;
42978;SDS011;28616;44.746;19.678;2023-04-27T13:23:39;8.57;;;7.72;;
42978;SDS011;28616;44.746;19.678;2023-04-27T13:26:05;8.48;;;7.55;;
42978;SDS011;28616;44.746;19.678;2023-04-27T13:28:31;9.07;;;8.18;;
42978;SDS011;28616;44.746;19.678;2023-04-27T13:30:57;13.35;;;9.45;;
42978;SDS011;28616;44.746;19.678;2023-04-27T13:33:23;8.15;;;7.45;;
42978;SDS011;28616;44.746;19.678;2023-04-27T13:35:49;8.23;;;7.40;;
42978;SDS011;28616;44.746;19.678;2023-04-27T13:38:15;9.02;;;7.80;;
42978;SDS011;28616;44.746;19.678;2023-04-27T13:40:41;7.07;;;6.57;;
42978;SDS011;28616;44.746;19.678;2023-04-27T13:43:07;6.70;;;6.10;;
42978;SDS011;28616;44.746;19.678;2023-04-27T13:45:33;9.75;;;5.45;;
42978;SDS011;28616;44.746;19.678;2023-04-27T13:47:59;8.00;;;4.60;;
42978;SDS011;28616;44.746;19.678;2023-04-27T13:50:24;7.47;;;4.50;;
42978;SDS011;28616;44.746;19.678;2023-04-27T13:52:50;6.97;;;5.60;;
42978;SDS011;28616;44.746;19.678;2023-04-27T13:55:16;9.02;;;5.80;;
42978;SDS011;28616;44.746;19.678;2023-04-27T13:57:42;6.05;;;5.35;;
42978;SDS011;28616;44.746;19.678;2023-04-27T14:00:08;5.93;;;5.30;;
42978;SDS011;28616;44.746;19.678;2023-04-27T14:02:35;9.00;;;5.60;;
42978;SDS011;28616;44.746;19.678;2023-04-27T14:05:01;5.38;;;4.88;;
42978;SDS011;28616;44.746;19.678;2023-04-27T14:07:29;6.22;;;5.63;;
42978;SDS011;28616;44.746;19.678;2023-04-27T14:09:56;9.48;;;7.28;;
42978;SDS011;28616;44.746;19.678;2023-04-27T14:12:22;16.70;;;7.72;;
42978;SDS011;28616;44.746;19.678;2023-04-27T14:14:48;6.30;;;5.60;;
42978;SDS011;28616;44.746;19.678;2023-04-27T14:17:15;13.73;;;8.75;;
42978;SDS011;28616;44.746;19.678;2023-04-27T14:19:40;10.90;;;6.95;;
42978;SDS011;28616;44.746;19.678;2023-04-27T14:22:06;10.40;;;7.03;;
42978;SDS011;28616;44.746;19.678;2023-04-27T14:24:33;5.65;;;4.93;;
42978;SDS011;28616;44.746;19.678;2023-04-27T14:26:59;10.80;;;5.88;;
42978;SDS011;28616;44.746;19.678;2023-04-27T14:29:25;11.93;;;6.85;;
42978;SDS011;28616;44.746;19.678;2023-04-27T14:31:51;14.32;;;8.20;;
42978;SDS011;28616;44.746;19.678;2023-04-27T14:34:16;17.45;;;8.10;;
42978;SDS011;28616;44.746;19.678;2023-04-27T14:36:42;11.27;;;7.63;;
42978;SDS011;28616;44.746;19.678;2023-04-27T14:39:08;17.27;;;8.57;;
42978;SDS011;28616;44.746;19.678;2023-04-27T14:41:34;10.57;;;6.68;;
42978;SDS011;28616;44.746;19.678;2023-04-27T14:44:01;11.23;;;7.00;;
42978;SDS011;28616;44.746;19.678;2023-04-27T14:46:28;12.50;;;6.22;;
42978;SDS011;28616;44.746;19.678;2023-04-27T14:48:54;7.13;;;5.75;;
42978;SDS011;28616;44.746;19.678;2023-04-27T14:51:20;10.23;;;6.28;;
42978;SDS011;28616;44.746;19.678;2023-04-27T14:53:46;8.27;;;5.05;;
42978;SDS011;28616;44.746;19.678;2023-04-27T14:56:12;9.73;;;6.18;;